Time;durP1;ratioP1;P1;durP2;ratioP2;P2;SDS_P1;SDS_P2;PMS_P1;PMS_P2;Temp;Humidity;BMP_temperature;BMP_pressure;BME280_temperature;BME280_humidity;BME280_pressure;Samples;Min_cycle;Max_cycle;Signal;HPM_P1;HPM_P2
2022/12/26 00:01:13;;;;;;;9.18;4.85;;;;;;;8.87;100.00;100317.38;5031907;28;20458;-67
2022/12/26 00:04:17;;;;;;;7.68;3.38;;;;;;;8.68;100.00;100307.84;5020043;28;20040;-67
2022/12/26 00:07:20;;;;;;;20.17;11.20;;;;;;;8.75;100.00;100297.97;5036266;28;20052;-69
2022/12/26 00:10:24;;;;;;;13.27;7.97;;;;;;;8.91;100.00;100288.50;5035916;28;20073;-67
2022/12/26 00:13:27;;;;;;;21.67;11.52;;;;;;;8.90;100.00;100306.81;5035298;28;20284;-68
2022/12/26 00:16:30;;;;;;;;;;;;;;;9.03;100.00;100295.72;5036318;28;20075;-67
2022/12/26 00:19:34;;;;;;;13.60;7.78;;;;;;;9.10;100.00;100298.03;5035489;28;19920;-68
2022/12/26 00:22:37;;;;;;;;;;;;;;;8.98;100.00;100310.72;5024109;28;20251;-68
2022/12/26 00:25:42;;;;;;;24.15;9.13;;;;;;;9.11;100.00;100310.13;5035536;28;19970;-67
2022/12/26 00:28:45;;;;;;;;;;;;;;;9.08;100.00;100305.91;5036187;28;20088;-67
2022/12/26 00:31:48;;;;;;;12.15;5.53;;;;;;;9.01;100.00;100305.38;5023430;28;20007;-67
2022/12/26 00:34:52;;;;;;;8.93;4.88;;;;;;;9.16;100.00;100313.38;5035582;28;20466;-67
2022/12/26 00:37:55;;;;;;;9.65;4.03;;;;;;;8.98;100.00;100310.72;5035242;28;20135;-67
2022/12/26 00:40:58;;;;;;;9.05;3.30;;;;;;;9.11;100.00;100313.56;5035196;28;20044;-67
2022/12/26 00:44:02;;;;;;;;;;;;;;;9.19;100.00;100305.34;5035659;28;20040;-67
2022/12/26 00:47:06;;;;;;;13.00;5.00;;;;;;;9.19;100.00;100313.19;5023077;28;19976;-66
2022/12/26 00:50:10;;;;;;;16.88;7.43;;;;;;;9.12;100.00;100319.63;5035088;28;20044;-66
2022/12/26 00:53:13;;;;;;;11.85;5.80;;;;;;;9.16;100.00;100309.00;5034990;28;20513;-67
2022/12/26 00:56:17;;;;;;;11.55;4.70;;;;;;;8.95;100.00;100316.09;5034988;28;20201;-66
2022/12/26 00:59:21;;;;;;;;;;;;;;;9.13;100.00;100329.16;5035104;28;20064;-66
2022/12/26 01:02:36;;;;;;;14.10;6.35;;;;;;;9.14;100.00;100320.41;5022846;28;19919;-66
2022/12/26 01:05:45;;;;;;;12.50;3.97;;;;;;;9.12;100.00;100320.47;5034766;28;20112;-66
2022/12/26 01:08:48;;;;;;;18.33;5.80;;;;;;;9.10;100.00;100324.09;5034801;28;20039;-67
2022/12/26 01:11:51;;;;;;;12.73;5.95;;;;;;;9.14;100.00;100317.81;5034494;28;20048;-66
2022/12/26 01:14:55;;;;;;;8.75;4.05;;;;;;;9.25;100.00;100312.88;5034590;28;20041;-67
2022/12/26 01:18:00;;;;;;;15.75;9.25;;;;;;;9.33;100.00;100310.75;5033797;28;20053;-67
2022/12/26 01:21:06;;;;;;;27.13;17.35;;;;;;;9.15;100.00;100322.09;5034864;28;20060;-67
2022/12/26 01:24:09;;;;;;;23.95;15.55;;;;;;;9.16;100.00;100323.81;5034324;28;20121;-67
2022/12/26 01:27:12;;;;;;;;;;;;;;;9.36;100.00;100323.63;5034994;28;20473;-67
2022/12/26 01:30:15;;;;;;;13.32;7.80;;;;;;;9.33;100.00;100326.41;5034513;28;20334;-67
2022/12/26 01:33:18;;;;;;;;;;;;;;;9.31;100.00;100338.66;5034465;28;20670;-67
2022/12/26 01:36:21;;;;;;;12.80;6.03;;;;;;;9.40;100.00;100343.44;5034273;28;20392;-68
2022/12/26 01:39:24;;;;;;;;;;;;;;;9.36;100.00;100346.28;5034617;28;20052;-68
2022/12/26 01:42:36;;;;;;;15.05;7.78;;;;;;;9.40;100.00;100351.25;5034352;28;19920;-67
2022/12/26 01:45:42;;;;;;;13.50;6.25;;;;;;;9.42;100.00;100362.47;5034108;28;20056;-68
2022/12/26 01:48:45;;;;;;;9.15;3.70;;;;;;;9.42;100.00;100356.41;5033930;28;20067;-67
2022/12/26 01:52:01;;;;;;;13.38;4.57;;;;;;;9.19;100.00;100368.84;5034010;28;20071;-67
2022/12/26 01:55:08;;;;;;;8.35;3.40;;;;;;;9.25;100.00;100371.16;5033844;28;20048;-67
2022/12/26 01:58:17;;;;;;;9.70;6.22;;;;;;;9.28;100.00;100355.34;5033643;28;20060;-67
2022/12/26 02:01:24;;;;;;;10.70;6.20;;;;;;;9.33;100.00;100365.53;5033663;28;20509;-68
2022/12/26 02:07:55;;;;;;;11.93;5.88;;;;;;;9.34;100.00;100369.81;5033661;28;20132;-67
2022/12/26 02:11:16;;;;;;;12.65;5.88;;;;;;;9.39;100.00;100367.84;5033703;28;20462;-66
2022/12/26 02:14:20;;;;;;;7.95;3.85;;;;;;;9.29;100.00;100364.00;5033440;28;20566;-66
2022/12/26 02:17:24;;;;;;;8.40;3.90;;;;;;;9.37;100.00;100354.03;5033354;28;20049;-67
2022/12/26 02:20:39;;;;;;;8.02;3.00;;;;;;;9.28;100.00;100362.28;5033414;28;20040;-67
2022/12/26 02:24:10;;;;;;;8.98;3.33;;;;;;;9.28;100.00;100359.69;5033497;28;20110;-67
2022/12/26 02:27:34;;;;;;;8.10;4.18;;;;;;;9.32;100.00;100372.53;5033272;28;20099;-67
2022/12/26 02:30:48;;;;;;;10.35;4.07;;;;;;;9.37;100.00;100364.47;5033122;28;20048;-67
2022/12/26 02:34:13;;;;;;;8.68;3.83;;;;;;;9.54;100.00;100367.09;5033070;28;20477;-67
2022/12/26 02:37:30;;;;;;;7.35;3.00;;;;;;;9.57;100.00;100370.44;5033035;28;20415;-67
2022/12/26 02:40:53;;;;;;;8.75;2.70;;;;;;;9.56;100.00;100382.66;5033050;28;20506;-67
2022/12/26 02:48:52;;;;;;;5.47;1.83;;;;;;;9.87;98.71;100395.00;5032987;28;20509;-68
2022/12/26 03:13:22;;;;;;;5.88;1.83;;;;;;;11.16;88.47;100388.06;5032385;28;20052;-68
2022/12/26 03:20:10;;;;;;;5.60;1.83;;;;;;;11.16;87.92;100373.19;5032479;28;20333;-67
2022/12/26 03:23:16;;;;;;;6.10;2.45;;;;;;;11.34;86.40;100354.75;5032238;28;20553;-67
2022/12/26 03:26:40;;;;;;;5.10;1.50;;;;;;;11.30;86.38;100354.09;5032267;28;20040;-67
2022/12/26 03:34:15;;;;;;;4.57;1.90;;;;;;;11.34;85.93;100328.59;5032248;28;20132;-68
2022/12/26 03:37:13;;;;;;;4.90;1.50;;;;;;;11.32;86.54;100320.81;5031875;28;20461;-67
2022/12/26 04:19:50;;;;;;;3.80;1.83;;;;;;;11.41;84.16;100371.78;5031712;28;20095;-66
2022/12/26 04:47:10;;;;;;;;;;;;;;;11.45;84.15;100369.81;5031327;28;20043;-67
2022/12/26 05:12:04;;;;;;;5.10;1.80;;;;;;;11.49;83.10;100373.97;5126845;27;20511;-66
2022/12/26 05:15:09;;;;;;;4.75;1.73;;;;;;;11.54;83.20;100377.16;5135822;27;20088;-66
2022/12/26 05:31:41;;;;;;;6.13;1.95;;;;;;;11.27;86.19;100385.69;5146126;27;20050;-69
2022/12/26 05:34:44;;;;;;;;;;;;;;;11.30;85.99;100380.28;5147782;27;20095;-69
2022/12/26 05:37:47;;;;;;;12.60;4.38;;;;;;;11.13;87.18;100377.75;5147048;27;20683;-67
2022/12/26 05:40:51;;;;;;;6.65;2.15;;;;;;;11.10;86.16;100373.56;5146702;27;20056;-68
2022/12/26 05:43:54;;;;;;;;;;;;;;;11.22;85.76;100377.25;5147111;27;20041;-68
2022/12/26 05:46:57;;;;;;;7.87;1.80;;;;;;;11.18;85.40;100375.72;5146210;27;19964;-68
2022/12/26 05:50:00;;;;;;;7.22;1.77;;;;;;;11.24;84.43;100396.31;5146632;27;20292;-67
2022/12/26 05:53:03;;;;;;;6.97;1.50;;;;;;;11.30;83.54;100380.28;5146995;27;20075;-68
2022/12/26 05:56:11;;;;;;;4.88;1.50;;;;;;;11.32;83.27;100383.63;5145588;27;20073;-68
2022/12/26 05:59:14;;;;;;;3.90;1.27;;;;;;;11.46;81.76;100392.47;5146136;27;20556;-68
2022/12/26 06:02:18;;;;;;;4.25;1.55;;;;;;;11.52;81.36;100400.81;5134874;27;20049;-68
2022/12/26 06:05:21;;;;;;;5.05;1.45;;;;;;;11.52;82.75;100390.34;5132539;27;20093;-68
2022/12/26 06:08:24;;;;;;;5.28;1.30;;;;;;;11.46;83.46;100389.88;5132804;27;20541;-68
2022/12/26 06:11:27;;;;;;;5.10;2.25;;;;;;;11.35;84.01;100393.91;5132352;27;20093;-67
2022/12/26 06:14:31;;;;;;;4.43;2.17;;;;;;;11.20;85.22;100386.97;5132444;27;20054;-68
2022/12/26 06:17:34;;;;;;;;;;;;;;;11.36;81.54;100389.56;5132830;27;20058;-68
2022/12/26 06:20:38;;;;;;;5.05;1.63;;;;;;;11.41;81.46;100387.50;5132078;27;19980;-68
2022/12/26 06:23:41;;;;;;;9.23;1.88;;;;;;;11.38;83.65;100391.13;5131987;27;20042;-71
2022/12/26 06:26:45;;;;;;;3.25;1.30;;;;;;;11.35;81.64;100387.84;5111735;28;20039;-67
2022/12/26 06:29:48;;;;;;;4.25;1.10;;;;;;;11.38;82.68;100379.81;5112042;28;20047;-67
2022/12/26 06:32:51;;;;;;;;;;;;;;;11.52;80.54;100397.34;5112008;28;20132;-67
2022/12/26 06:36:03;;;;;;;4.25;1.15;;;;;;;11.48;80.51;100388.81;5110656;28;20006;-68
2022/12/26 06:39:06;;;;;;;4.03;1.15;;;;;;;11.64;79.62;100391.38;5118906;27;20092;-67
2022/12/26 06:42:09;;;;;;;5.15;1.20;;;;;;;11.63;80.52;100397.56;5131029;27;20046;-68
2022/12/26 06:45:13;;;;;;;4.97;1.80;;;;;;;11.60;80.45;100393.34;5131402;27;20104;-68
2022/12/26 06:48:16;;;;;;;;;;;;;;;11.58;80.45;100399.59;5132064;27;20041;-67
2022/12/26 06:51:22;;;;;;;4.63;1.75;;;;;;;11.57;80.95;100398.75;5131657;27;19918;-68
2022/12/26 06:54:25;;;;;;;3.67;1.27;;;;;;;11.46;81.74;100406.41;5131241;27;20050;-67
2022/12/26 06:57:29;;;;;;;4.50;1.20;;;;;;;11.45;81.89;100401.25;5130562;27;20123;-68
2022/12/26 07:00:32;;;;;;;5.43;1.40;;;;;;;11.41;82.14;100404.03;5130653;27;20057;-68
2022/12/26 07:03:36;;;;;;;;;;;;;;;11.39;82.53;100399.81;5130043;27;20046;-68
2022/12/26 07:06:40;;;;;;;8.48;2.55;;;;;;;11.40;82.20;100406.75;5128057;27;19919;-67
2022/12/26 07:09:51;;;;;;;3.72;1.27;;;;;;;11.32;83.19;100422.06;5119367;27;20038;-67
2022/12/26 07:12:55;;;;;;;3.63;1.02;;;;;;;11.42;81.66;100420.59;5122346;27;20091;-67
2022/12/26 07:15:59;;;;;;;3.10;1.10;;;;;;;11.31;80.40;100436.91;5122438;27;20053;-68
2022/12/26 07:19:02;;;;;;;1.90;1.00;;;;;;;11.24;79.85;100442.59;5118723;27;20045;-68
2022/12/26 07:22:05;;;;;;;2.85;1.40;;;;;;;11.13;80.64;100441.41;5120554;27;20204;-67
2022/12/26 07:25:08;;;;;;;5.85;3.97;;;;;;;11.07;81.27;100443.53;5113465;27;20541;-68
2022/12/26 07:28:12;;;;;;;5.75;3.13;;;;;;;11.00;81.75;100444.78;5122941;27;20131;-67
2022/12/26 07:31:16;;;;;;;9.75;8.27;;;;;;;10.84;82.70;100453.47;5124206;27;20556;-67
2022/12/26 07:34:20;;;;;;;13.27;11.38;;;;;;;10.78;83.32;100455.59;5120019;27;20054;-67
2022/12/26 07:37:25;;;;;;;5.55;2.90;;;;;;;10.69;83.96;100456.94;5120611;27;20047;-67
2022/12/26 07:40:29;;;;;;;6.32;3.45;;;;;;;10.69;83.62;100467.41;5114336;27;20084;-67
2022/12/26 07:43:33;;;;;;;4.00;1.27;;;;;;;10.71;85.30;100468.16;5120375;27;20126;-68
2022/12/26 07:46:36;;;;;;;;;;;;;;;10.58;84.57;100482.81;5120321;27;20047;-66
2022/12/26 07:49:41;;;;;;;3.13;0.90;;;;;;;10.73;84.75;100483.78;5119424;27;19968;-70
2022/12/26 07:52:47;;;;;;;2.33;0.70;;;;;;;10.59;86.36;100477.50;5116455;27;20050;-68
2022/12/26 07:55:50;;;;;;;1.10;0.38;;;;;;;10.51;85.43;100460.53;5120118;27;20042;-67
2022/12/26 07:58:53;;;;;;;1.92;0.40;;;;;;;10.56;84.55;100459.38;5129331;27;20042;-69
2022/12/26 08:01:58;;;;;;;1.85;0.82;;;;;;;10.46;86.41;100443.34;5128193;27;20034;-67
2022/12/26 08:05:01;;;;;;;2.97;0.57;;;;;;;10.50;85.08;100438.78;5120222;27;20046;-67
2022/12/26 08:08:06;;;;;;;1.80;0.95;;;;;;;10.51;85.54;100442.25;5128027;27;20373;-68
2022/12/26 08:11:13;;;;;;;;;;;;;;;10.53;86.29;100438.63;5121124;27;20033;-67
2022/12/26 08:14:16;;;;;;;4.30;2.05;;;;;;;10.37;88.23;100446.44;5127242;27;19922;-67
2022/12/26 08:17:19;;;;;;;;;;;;;;;10.42;88.59;100428.72;5107539;28;20100;-67
2022/12/26 08:20:23;;;;;;;3.67;1.40;;;;;;;10.36;89.55;100425.59;5125820;27;19923;-67
2022/12/26 08:23:26;;;;;;;2.10;0.95;;;;;;;10.36;89.83;100460.41;5128154;27;20038;-68
2022/12/26 08:26:30;;;;;;;4.90;1.00;;;;;;;10.37;90.68;100477.78;5107007;28;20073;-67
2022/12/26 08:29:33;;;;;;;;;;;;;;;10.15;91.27;100487.63;5107478;28;20043;-67
2022/12/26 08:32:36;;;;;;;2.03;1.00;;;;;;;10.37;91.51;100480.41;5109846;27;20513;-66
2022/12/26 08:35:40;;;;;;;3.47;1.30;;;;;;;10.32;90.84;100486.78;5127797;27;20327;-67
2022/12/26 08:38:43;;;;;;;5.28;1.13;;;;;;;10.39;91.26;100504.69;5127753;27;20038;-68
2022/12/26 08:41:46;;;;;;;5.80;2.17;;;;;;;10.31;91.98;100513.84;5127406;27;20131;-66
2022/12/26 08:44:50;;;;;;;3.55;1.60;;;;;;;10.33;92.78;100523.28;5127941;27;20046;-66
2022/12/26 08:47:54;;;;;;;4.57;1.75;;;;;;;10.44;91.79;100517.53;5127713;27;20562;-66
2022/12/26 08:51:04;;;;;;;3.60;1.40;;;;;;;10.54;91.15;100510.06;5128532;28;20103;-66
2022/12/26 08:54:07;;;;;;;12.13;3.10;;;;;;;10.55;91.62;100525.63;5129125;27;20054;-66
2022/12/26 08:57:10;;;;;;;;;;;;;;;10.54;91.71;100499.59;5128901;27;20046;-66
2022/12/26 09:00:14;;;;;;;2.28;0.90;;;;;;;10.50;92.50;100524.19;5128332;27;19987;-67
2022/12/26 09:03:17;;;;;;;4.93;2.80;;;;;;;10.19;93.81;100542.25;5128052;28;20056;-67
2022/12/26 09:06:21;;;;;;;6.25;3.53;;;;;;;10.25;94.62;100546.34;5128226;28;20161;-66
2022/12/26 09:09:24;;;;;;;3.40;1.45;;;;;;;10.36;93.10;100564.13;5127156;28;20045;-66
2022/12/26 09:12:28;;;;;;;4.75;2.15;;;;;;;10.35;93.84;100568.50;5128100;28;20139;-66
2022/12/26 09:15:31;;;;;;;8.38;5.15;;;;;;;10.42;93.62;100556.81;5127354;28;20114;-66
2022/12/26 09:18:35;;;;;;;6.53;4.03;;;;;;;10.46;93.35;100562.72;5126391;27;20042;-66
2022/12/26 09:21:38;;;;;;;;;;;;;;;10.41;93.05;100560.34;5114397;27;20074;-66
2022/12/26 09:24:43;;;;;;;3.13;1.30;;;;;;;10.65;91.99;100536.47;5116334;28;19957;-67
2022/12/26 09:27:49;;;;;;;5.07;0.80;;;;;;;10.71;92.48;100549.22;5119874;28;20070;-66
2022/12/26 09:30:52;;;;;;;6.13;2.20;;;;;;;10.79;92.24;100547.06;5127302;27;20053;-66
2022/12/26 09:33:56;;;;;;;8.75;2.03;;;;;;;11.04;90.69;100540.50;5127824;27;20058;-69
2022/12/26 09:36:59;;;;;;;8.25;2.67;;;;;;;11.04;88.48;100525.66;5129391;27;20460;-67
2022/12/26 09:40:03;;;;;;;;;;;;;;;11.01;90.25;100572.06;5131908;27;20519;-67
2022/12/26 09:43:22;;;;;;;5.22;3.13;;;;;;;11.05;89.51;100579.69;5131376;27;19984;-67
2022/12/26 09:46:34;;;;;;;3.67;1.10;;;;;;;11.01;87.88;100556.34;5131137;27;20046;-67
2022/12/26 09:49:44;;;;;;;3.65;1.42;;;;;;;11.14;86.59;100562.66;5131616;27;20038;-68
2022/12/26 09:52:58;;;;;;;2.83;0.88;;;;;;;11.18;86.23;100569.41;5131504;27;20088;-67
2022/12/26 09:56:05;;;;;;;3.88;1.30;;;;;;;11.29;85.32;100567.03;5132058;27;20063;-68
2022/12/26 09:59:15;;;;;;;2.72;1.00;;;;;;;11.28;83.65;100556.66;5131409;27;20091;-68
2022/12/26 10:02:24;;;;;;;4.82;1.83;;;;;;;11.35;83.63;100566.69;5132032;27;20100;-69
2022/12/26 10:05:42;;;;;;;3.03;1.08;;;;;;;11.33;83.47;100547.63;5131508;27;20057;-68
2022/12/26 10:08:52;;;;;;;2.10;0.98;;;;;;;11.36;82.87;100538.78;5132094;27;20575;-67
2022/12/26 10:12:12;;;;;;;2.75;1.00;;;;;;;11.30;82.97;100555.66;5131002;27;20100;-69
2022/12/26 10:15:35;;;;;;;1.80;0.80;;;;;;;11.38;82.19;100561.28;5119146;27;20046;-67
2022/12/26 10:18:47;;;;;;;4.50;1.42;;;;;;;11.48;82.22;100561.63;5127943;27;20042;-68
2022/12/26 10:22:07;;;;;;;2.80;1.40;;;;;;;11.47;82.12;100557.34;5113279;28;20118;-67
2022/12/26 10:25:19;;;;;;;3.08;1.17;;;;;;;11.54;82.19;100561.28;5120279;27;20169;-67
2022/12/26 10:28:40;;;;;;;2.85;1.08;;;;;;;11.67;81.63;100552.75;5114263;28;20439;-67
2022/12/26 10:31:58;;;;;;;4.35;1.17;;;;;;;11.59;81.79;100554.03;5113886;28;20507;-67
2022/12/26 10:35:17;;;;;;;2.20;0.80;;;;;;;11.53;81.47;100553.53;5122802;27;20548;-70
2022/12/26 10:38:32;;;;;;;2.72;0.98;;;;;;;11.49;80.42;100557.25;5120551;27;20039;-68
2022/12/26 10:41:45;;;;;;;2.53;0.60;;;;;;;11.63;80.49;100562.56;5115869;27;20101;-68
2022/12/26 10:44:49;;;;;;;;;;;;;;;11.60;80.66;100554.88;5116434;27;20518;-67
2022/12/26 10:47:54;;;;;;;4.72;2.35;;;;;;;11.59;80.29;100564.50;5118117;27;20453;-67
2022/12/26 10:50:59;;;;;;;10.20;9.23;;;;;;;11.51;80.45;100560.63;5119425;27;20068;-67
2022/12/26 11:00:28;;;;;;;1.90;0.57;;;;;;;11.59;78.86;100564.50;5052464;28;20156;-78
2022/12/26 11:41:31;;;;;;;3.72;1.40;;;;;;;11.51;77.04;100576.34;5143246;27;20737;-81
2022/12/26 11:44:39;;;;;;;9.07;6.10;;;;;;;11.63;76.90;100576.50;5129620;27;20528;-80
2022/12/26 11:59:26;;;;;;;4.68;1.42;;;;;;;11.59;78.06;100553.19;5111538;27;20379;-79
2022/12/26 12:02:36;;;;;;;4.93;2.67;;;;;;;11.76;77.21;100560.94;5102865;28;20051;-77
2022/12/26 12:06:00;;;;;;;6.85;3.50;;;;;;;11.79;76.87;100559.94;5100202;28;20101;-80
2022/12/26 12:09:31;;;;;;;8.67;5.77;;;;;;;11.75;77.39;100563.66;5101200;28;20063;-78
2022/12/26 12:13:09;;;;;;;18.80;13.50;;;;;;;11.93;76.04;100556.53;5099997;28;20097;-77
2022/12/26 12:30:27;;;;;;;4.90;2.28;;;;;;;11.74;76.08;100565.44;5101674;27;20399;-73
2022/12/26 12:33:57;;;;;;;3.63;1.80;;;;;;;11.72;75.50;100564.66;5094849;28;20051;-75
2022/12/26 12:37:17;;;;;;;2.35;0.60;;;;;;;11.68;74.07;100554.44;5103332;28;20068;-75
2022/12/26 12:40:35;;;;;;;6.30;1.70;;;;;;;12.17;76.73;100555.13;5100446;28;20124;-76
2022/12/26 12:44:05;;;;;;;19.85;14.07;;;;;;;12.15;73.01;100556.97;5099647;28;20117;-78
2022/12/26 12:47:33;;;;;;;9.77;4.20;;;;;;;12.26;74.55;100551.97;5095855;28;20684;-73
2022/12/26 12:50:39;;;;;;;8.90;4.05;;;;;;;12.12;74.43;100544.06;5099689;28;20039;-75
2022/12/26 12:54:20;;;;;;;9.38;4.43;;;;;;;12.11;73.65;100555.47;5103278;28;20546;-75
2022/12/26 12:57:40;;;;;;;5.75;1.48;;;;;;;11.99;73.57;100559.66;5079801;28;20055;-79
2022/12/26 13:00:50;;;;;;;6.15;2.03;;;;;;;12.00;73.80;100563.97;5091267;28;20109;-76
2022/12/26 13:04:15;;;;;;;3.53;1.25;;;;;;;12.03;73.96;100558.56;5076031;28;20089;-77
2022/12/26 13:07:27;;;;;;;23.67;13.48;;;;;;;12.04;73.82;100538.44;5088612;28;20097;-74
2022/12/26 13:10:33;;;;;;;22.15;13.38;;;;;;;12.04;73.63;100551.53;5088239;28;20520;-74
2022/12/26 13:14:01;;;;;;;19.08;8.88;;;;;;;11.95;71.74;100533.72;5088255;28;20462;-77
2022/12/26 13:17:08;;;;;;;9.18;5.63;;;;;;;11.76;72.69;100529.50;5089660;28;20408;-76
2022/12/26 13:20:18;;;;;;;3.63;1.83;;;;;;;11.77;72.74;100531.22;5100310;28;20074;-76
2022/12/26 13:27:02;;;;;;;3.67;1.58;;;;;;;11.75;74.01;100512.09;5087739;28;20047;-74
2022/12/26 13:30:12;;;;;;;5.20;1.25;;;;;;;11.94;73.69;100525.03;5039098;28;20449;-75
2022/12/26 13:33:15;;;;;;;5.53;1.75;;;;;;;11.80;73.10;100540.66;5034396;28;20056;-77
2022/12/26 13:36:39;;;;;;;3.75;0.88;;;;;;;11.63;73.66;100534.59;5039256;28;20043;-74
2022/12/26 13:39:43;;;;;;;5.63;1.23;;;;;;;11.84;74.35;100536.94;5033302;28;20088;-74
2022/12/26 13:49:35;;;;;;;5.05;2.20;;;;;;;11.74;73.74;100520.91;5010111;28;20053;-90
2022/12/26 13:53:26;;;;;;;11.43;1.50;;;;;;;11.67;74.06;100530.03;5037410;28;20091;-90
2022/12/26 13:56:55;;;;;;;17.55;9.40;;;;;;;11.54;73.44;100539.50;5022110;28;20052;-92
2022/12/26 14:00:20;;;;;;;32.80;23.83;;;;;;;11.57;73.85;100542.78;5035929;28;20114;-91
2022/12/26 14:03:36;;;;;;;9.25;4.63;;;;;;;11.69;73.84;100549.13;5017264;28;20123;-92
2022/12/26 14:07:07;;;;;;;6.75;4.85;;;;;;;11.62;73.96;100555.66;5024965;28;20083;-92
2022/12/26 14:10:32;;;;;;;5.30;3.00;;;;;;;11.53;74.71;100561.38;5042527;28;20381;-93
2022/12/26 14:13:59;;;;;;;4.10;1.33;;;;;;;11.46;73.74;100565.28;5038825;28;20049;-93
2022/12/26 14:17:30;;;;;;;4.10;1.42;;;;;;;11.48;74.62;100558.16;5037761;28;20106;-92
2022/12/26 14:20:48;;;;;;;3.53;1.40;;;;;;;11.39;73.37;100573.47;5038033;28;20080;-92
2022/12/26 14:24:55;;;;;;;3.65;1.58;;;;;;;11.31;71.32;100573.03;5036119;28;20044;-93
2022/12/26 14:28:35;;;;;;;1.58;0.60;;;;;;;11.35;70.50;100571.09;5027858;28;20040;-96
2022/12/26 14:31:54;;;;;;;;;;;;;;;11.30;70.19;100555.66;5037768;28;20131;-96
2022/12/26 14:35:18;;;;;;;4.97;3.42;;;;;;;11.28;69.86;100552.25;5036142;28;20001;-95
2022/12/26 14:38:48;;;;;;;3.15;1.00;;;;;;;11.27;70.32;100550.59;5037009;28;20488;-94
2022/12/26 14:45:40;;;;;;;;;;;;;;;11.09;69.91;100565.50;5038735;28;20139;-90
2022/12/26 14:58:21;;;;;;;2.70;0.80;;;;;;;11.04;70.76;100579.75;5027751;28;20503;-95
2022/12/26 15:01:33;;;;;;;2.63;0.80;;;;;;;11.12;70.79;100572.34;5040444;28;20399;-96
2022/12/26 15:05:00;;;;;;;4.57;1.80;;;;;;;11.05;71.93;100568.38;5027830;28;20092;-96
2022/12/26 15:08:46;;;;;;;1.95;0.50;;;;;;;11.08;72.26;100565.59;5036347;28;20079;-95
2022/12/26 15:12:12;;;;;;;3.78;1.92;;;;;;;11.03;73.22;100559.75;4996828;28;20040;-95
2022/12/26 15:15:43;;;;;;;7.30;3.53;;;;;;;11.17;73.31;100567.72;5034522;28;20048;-96
2022/12/26 15:19:18;;;;;;;5.15;3.25;;;;;;;11.28;73.95;100575.81;5034325;28;20134;-96
2022/12/26 15:22:40;;;;;;;3.58;1.67;;;;;;;11.14;74.79;100581.81;5034388;28;20095;-95
2022/12/26 15:26:02;;;;;;;4.20;1.40;;;;;;;11.06;75.22;100585.75;5021912;28;20048;-95
2022/12/26 15:29:33;;;;;;;2.85;0.90;;;;;;;10.90;76.73;100572.63;5033903;28;20423;-85
2022/12/26 15:33:11;;;;;;;14.20;10.93;;;;;;;10.87;77.47;100576.25;5008726;28;20445;-89
2022/12/26 15:36:33;;;;;;;4.55;1.20;;;;;;;10.92;77.54;100576.88;5030290;28;20052;-82
2022/12/26 15:40:02;;;;;;;4.72;2.50;;;;;;;10.77;78.70;100590.75;5028940;28;20428;-83
2022/12/26 15:43:38;;;;;;;17.38;11.50;;;;;;;10.78;78.67;100578.50;5018762;28;20626;-83
2022/12/26 15:47:01;;;;;;;16.20;10.05;;;;;;;10.83;78.61;100584.34;5030070;28;20103;-82
2022/12/26 15:50:24;;;;;;;9.10;5.80;;;;;;;10.70;79.02;100589.38;5029934;28;20104;-88
2022/12/26 15:53:49;;;;;;;6.53;2.65;;;;;;;10.71;78.79;100599.75;5031854;28;20083;-80
2022/12/26 15:57:12;;;;;;;16.65;10.35;;;;;;;10.74;78.40;100603.97;5029475;28;20052;-81
2022/12/26 16:00:32;;;;;;;10.23;6.22;;;;;;;10.77;78.58;100656.13;5030696;28;20056;-83
2022/12/26 16:03:46;;;;;;;5.50;1.33;;;;;;;9.50;77.64;100680.50;5031342;28;20052;-80
2022/12/26 16:07:19;;;;;;;;;;;;;;;8.78;80.61;100688.91;5084600;22;20067;-74
2022/12/26 16:10:23;;;;;;;10.63;5.18;;;;;;;8.74;83.58;100687.31;5071854;28;20008;-74
2022/12/26 16:25:23;;;;;;;4.30;2.53;;;;;;;8.13;90.37;100701.88;5150414;27;20587;-72
2022/12/26 16:28:38;;;;;;;9.13;4.05;;;;;;;8.23;90.23;100707.59;5129993;28;20082;-72
2022/12/26 16:31:41;;;;;;;22.05;11.57;;;;;;;8.47;90.02;100705.78;5130065;28;20100;-72
2022/12/26 16:34:46;;;;;;;9.13;4.22;;;;;;;8.78;88.94;100701.94;5130140;28;20073;-72
2022/12/26 16:37:52;;;;;;;10.52;5.55;;;;;;;9.05;89.26;100698.13;5123796;28;20067;-72
2022/12/26 16:40:59;;;;;;;7.10;3.75;;;;;;;9.23;89.34;100716.53;5125682;28;20176;-72
2022/12/26 16:44:29;;;;;;;5.65;2.92;;;;;;;9.21;90.44;100700.06;5129789;28;20043;-72
2022/12/26 16:47:33;;;;;;;2.55;1.05;;;;;;;9.04;90.72;100706.88;5129562;28;20104;-72
2022/12/26 16:50:55;;;;;;;2.75;1.00;;;;;;;8.76;92.99;100722.00;5129682;28;20043;-72
2022/12/26 16:54:20;;;;;;;5.07;2.30;;;;;;;8.85;93.81;100732.03;5129453;28;20097;-73
2022/12/26 16:57:23;;;;;;;4.68;1.98;;;;;;;9.15;92.90;100735.09;5129336;28;20138;-73
2022/12/26 17:00:28;;;;;;;;;;;;;;;9.22;92.09;100738.28;5129869;28;20038;-73
2022/12/26 17:03:39;;;;;;;3.15;1.05;;;;;;;9.24;92.38;100757.34;5129656;28;19919;-74
2022/12/26 17:07:00;;;;;;;2.30;1.10;;;;;;;9.20;92.97;100746.19;5129475;28;20049;-73
2022/12/26 17:10:05;;;;;;;3.95;1.50;;;;;;;9.17;92.63;100761.13;5129182;28;20066;-74
2022/12/26 17:13:18;;;;;;;11.07;7.82;;;;;;;8.77;91.07;100763.63;5128239;28;20100;-75
2022/12/26 17:16:25;;;;;;;5.45;2.72;;;;;;;8.88;92.31;100778.84;5110362;28;20424;-76
2022/12/26 17:19:32;;;;;;;10.93;5.35;;;;;;;8.96;92.47;100775.91;5106796;28;20059;-74
2022/12/26 17:34:41;;;;;;;3.25;0.60;;;;;;;8.34;90.96;100787.94;6233031;22;1309344;-76
2022/12/26 17:37:49;;;;;;;3.20;0.70;;;;;;;8.52;90.46;100792.47;6282857;22;20077;-77
2022/12/26 17:40:57;;;;;;;3.97;0.90;;;;;;;8.54;89.09;100802.81;6282319;22;20072;-78
2022/12/26 17:44:01;;;;;;;1.38;0.47;;;;;;;8.60;88.80;100813.00;6283258;22;20128;-77
2022/12/26 17:47:17;;;;;;;;;;;;;;;8.39;87.24;100812.06;6284444;22;20026;-77
2022/12/26 17:50:22;;;;;;;2.28;0.95;;;;;;;8.42;87.42;100811.09;6283796;22;19955;-77
2022/12/26 17:53:34;;;;;;;4.05;1.23;;;;;;;8.72;88.84;100825.56;6283820;22;20107;-76
2022/12/26 17:56:37;;;;;;;4.63;1.38;;;;;;;8.56;88.52;100820.09;6282454;22;20360;-75
2022/12/26 17:59:41;;;;;;;4.15;0.90;;;;;;;8.81;84.91;100850.44;6282936;22;20021;-76
2022/12/26 18:02:44;;;;;;;4.57;2.55;;;;;;;8.11;83.11;100846.97;6281568;22;20027;-75
2022/12/26 18:05:47;;;;;;;;;;;;;;;7.69;83.58;100858.03;6282912;22;20022;-76
2022/12/26 18:08:50;;;;;;;9.40;4.00;;;;;;;7.82;84.79;100865.41;6282525;22;19913;-75
2022/12/26 18:11:54;;;;;;;;;;;;;;;7.82;83.88;100874.06;6282908;22;20027;-76
2022/12/26 18:14:57;;;;;;;3.40;1.58;;;;;;;8.02;84.75;100873.34;6282330;22;19913;-76
2022/12/26 18:18:01;;;;;;;7.95;2.72;;;;;;;7.78;82.88;100876.81;6282330;22;20077;-76
2022/12/26 18:21:08;;;;;;;4.15;1.60;;;;;;;7.45;84.52;100875.31;6282065;22;20076;-74
2022/12/26 18:24:12;;;;;;;6.65;1.75;;;;;;;7.91;85.07;100881.53;6282303;22;20727;-75
2022/12/26 18:27:24;;;;;;;5.65;1.45;;;;;;;8.12;84.18;100887.72;6282577;22;20053;-76
2022/12/26 18:30:27;;;;;;;4.53;1.50;;;;;;;8.05;84.64;100885.41;6299310;22;20474;-75
2022/12/26 18:33:30;;;;;;;;;;;;;;;7.65;86.75;100898.06;6295509;22;20022;-76
2022/12/26 18:36:37;;;;;;;2.95;1.08;;;;;;;7.78;86.87;100897.63;6306747;22;19914;-75
2022/12/26 18:39:40;;;;;;;3.42;1.17;;;;;;;7.65;88.00;100913.66;6302379;22;20037;-75
2022/12/26 18:42:45;;;;;;;;;;;;;;;7.50;88.73;100918.53;6307124;22;20030;-76
2022/12/26 18:45:48;;;;;;;6.95;1.17;;;;;;;7.39;88.69;100926.69;6305134;22;20520;-75
2022/12/26 18:48:52;;;;;;;;;;;;;;;7.05;89.21;100935.59;6307375;22;20084;-75
2022/12/26 18:51:58;;;;;;;6.63;2.35;;;;;;;7.22;89.22;100935.91;6305705;22;19913;-75
2022/12/26 18:55:01;;;;;;;8.35;2.40;;;;;;;7.18;90.14;100941.25;6307008;22;20046;-76
2022/12/26 18:58:05;;;;;;;7.07;1.70;;;;;;;7.23;88.90;100950.59;6307559;22;20395;-75
2022/12/26 19:01:12;;;;;;;4.18;1.80;;;;;;;7.40;88.59;100951.81;6306259;22;20086;-75
2022/12/26 19:04:16;;;;;;;3.83;1.10;;;;;;;7.52;87.91;100951.41;6306221;22;20529;-74
2022/12/26 19:07:22;;;;;;;12.55;4.22;;;;;;;7.37;88.38;100954.50;6306305;22;20022;-75